Terminal Aerodrome Forecast
Issued by NWS

Home | Current Version | Previous Version | Graphics & Text | Print | Product List | Glossary On
Versions: 1 2 3 4 5 6 7 8 9 10 11 12 13 14 15 16 17 18
000
FTUS43 KGRB 291728
TAFAUW
TAF
KAUW 291728Z 2918/3018 23010G16KT P6SM VCSH SCT025 BKN080
     FM292100 26008KT P6SM -SHRA BKN025 OVC050
      TEMPO 2921/3001 3SM TSRA BKN020CB
     FM300100 35005KT 4SM RA BR BKN012 OVC030
     FM300300 36008KT 4SM RA BR OVC006
     FM301000 36010G16KT 6SM -SHRA SCT008 OVC014
     FM301400 01011G16KT P6SM OVC016=

USA.gov is the U.S. government's official web portal to all federal, state and local government web resources and services.